Observation data for Gail on 08/20/2019      Previous  Date       Current Mesonet Observations  Soil Data  Daily Summary Page  Observations in Plain Language
KGGS 200500Z 15008KT 30/15 A3003 RMK A01 T02990145  RH  041%=      5-min Rain = 0
KGGS 200505Z 14008KT 30/14 A3003 RMK A01 T02990144  RH  040%=      5-min Rain = 0
KGGS 200510Z 14008KT 30/14 A3003 RMK A01 T02980142  RH  040%=      5-min Rain = 0
KGGS 200515Z 14008KT 30/14 A3003 RMK A01 T02980141  RH  040%=      5-min Rain = 0
KGGS 200520Z 14008KT 30/14 A3003 RMK A01 T02980141  RH  040%=      5-min Rain = 0
KGGS 200525Z 14008KT 30/14 A3003 RMK A01 T02970140  RH  040%=      5-min Rain = 0
KGGS 200530Z 14009KT 30/14 A3003 RMK A01 T02980140  RH  040%=      5-min Rain = 0
KGGS 200535Z 14009KT 30/14 A3003 RMK A01 T02980140  RH  040%=      5-min Rain = 0
KGGS 200540Z 14008KT 30/14 A3003 RMK A01 T02960141  RH  040%=      5-min Rain = 0
KGGS 200545Z 14009KT 30/14 A3003 RMK A01 T02950141  RH  040%=      5-min Rain = 0
KGGS 200550Z 14008KT 30/14 A3003 RMK A01 T02950141  RH  041%=      5-min Rain = 0
KGGS 200555Z 14008KT 29/14 A3003 RMK A01 T02930141  RH  041%=      5-min Rain = 0
KGGS 200600Z 14008KT 29/14 A3003 RMK A01 T02920141  RH  041%=      5-min Rain = 0
KGGS 200605Z 14008KT 29/14 A3003 RMK A01 T02910142  RH  042%=      5-min Rain = 0
KGGS 200610Z 14007KT 29/14 A3003 RMK A01 T02890142  RH  042%=      5-min Rain = 0
KGGS 200615Z 14007KT 29/14 A3003 RMK A01 T02880142  RH  042%=      5-min Rain = 0
KGGS 200620Z 14008KT 29/14 A3003 RMK A01 T02870142  RH  043%=      5-min Rain = 0
KGGS 200625Z 14007KT 29/14 A3003 RMK A01 T02860142  RH  043%=      5-min Rain = 0
KGGS 200630Z 14007KT 29/14 A3003 RMK A01 T02850142  RH  043%=      5-min Rain = 0
KGGS 200635Z 14007KT 28/14 A3003 RMK A01 T02840142  RH  044%=      5-min Rain = 0
KGGS 200640Z 14007KT 28/14 A3004 RMK A01 T02830142  RH  044%=      5-min Rain = 0
KGGS 200645Z 14007KT 28/14 A3004 RMK A01 T02820142  RH  044%=      5-min Rain = 0
KGGS 200650Z 14007KT 28/14 A3004 RMK A01 T02810142  RH  045%=      5-min Rain = 0
KGGS 200655Z 14006KT 28/14 A3004 RMK A01 T02790142  RH  045%=      5-min Rain = 0
KGGS 200700Z 14007KT 28/14 A3004 RMK A01 T02780142  RH  045%=      5-min Rain = 0
KGGS 200705Z 15007KT 28/14 A3004 RMK A01 T02770142  RH  046%=      5-min Rain = 0
KGGS 200710Z 15007KT 28/14 A3004 RMK A01 T02750142  RH  046%=      5-min Rain = 0
KGGS 200715Z 15007KT 27/14 A3004 RMK A01 T02740143  RH  046%=      5-min Rain = 0
KGGS 200720Z 15007KT 27/14 A3004 RMK A01 T02740143  RH  047%=      5-min Rain = 0
KGGS 200725Z 15006KT 27/14 A3004 RMK A01 T02730143  RH  047%=      5-min Rain = 0
KGGS 200730Z 15005KT 27/14 A3004 RMK A01 T02710143  RH  047%=      5-min Rain = 0
KGGS 200735Z 16005KT 27/14 A3005 RMK A01 T02690143  RH  048%=      5-min Rain = 0
KGGS 200740Z 16005KT 27/14 A3005 RMK A01 T02660143  RH  049%=      5-min Rain = 0
KGGS 200745Z 16006KT 27/14 A3005 RMK A01 T02650143  RH  049%=      5-min Rain = 0
KGGS 200750Z 15006KT 27/14 A3005 RMK A01 T02650143  RH  049%=      5-min Rain = 0
KGGS 200755Z 15006KT 27/14 A3005 RMK A01 T02670144  RH  049%=      5-min Rain = 0
KGGS 200800Z 15006KT 27/14 A3004 RMK A01 T02680144  RH  049%=      5-min Rain = 0
KGGS 200805Z 15006KT 27/14 A3004 RMK A01 T02680144  RH  048%=      5-min Rain = 0
KGGS 200810Z 15006KT 27/14 A3004 RMK A01 T02680144  RH  049%=      5-min Rain = 0
KGGS 200815Z 15006KT 27/14 A3004 RMK A01 T02670144  RH  049%=      5-min Rain = 0
KGGS 200820Z 15006KT 27/14 A3004 RMK A01 T02660144  RH  049%=      5-min Rain = 0
KGGS 200825Z 15006KT 26/14 A3004 RMK A01 T02640144  RH  050%=      5-min Rain = 0
KGGS 200830Z 15007KT 26/14 A3004 RMK A01 T02630144  RH  050%=      5-min Rain = 0
KGGS 200835Z 15006KT 26/14 A3004 RMK A01 T02630144  RH  050%=      5-min Rain = 0
KGGS 200840Z 15006KT 26/14 A3004 RMK A01 T02620144  RH  050%=      5-min Rain = 0
KGGS 200845Z 15005KT 26/14 A3004 RMK A01 T02610144  RH  051%=      5-min Rain = 0
KGGS 200850Z 16005KT 26/14 A3004 RMK A01 T02590143  RH  051%=      5-min Rain = 0
KGGS 200855Z 16005KT 26/14 A3005 RMK A01 T02580143  RH  051%=      5-min Rain = 0
KGGS 200900Z 16005KT 26/14 A3005 RMK A01 T02590143  RH  051%=      5-min Rain = 0
KGGS 200905Z 16006KT 26/14 A3005 RMK A01 T02600143  RH  051%=      5-min Rain = 0
KGGS 200910Z 16006KT 26/14 A3005 RMK A01 T02600143  RH  050%=      5-min Rain = 0
KGGS 200915Z 16006KT 26/14 A3005 RMK A01 T02590143  RH  051%=      5-min Rain = 0
KGGS 200920Z 17006KT 26/14 A3004 RMK A01 T02580143  RH  051%=      5-min Rain = 0
KGGS 200925Z 17006KT 26/14 A3004 RMK A01 T02550143  RH  052%=      5-min Rain = 0
KGGS 200930Z 17006KT 25/14 A3004 RMK A01 T02540142  RH  052%=      5-min Rain = 0
KGGS 200935Z 17006KT 25/14 A3005 RMK A01 T02520142  RH  053%=      5-min Rain = 0
KGGS 200940Z 17006KT 25/14 A3005 RMK A01 T02510142  RH  053%=      5-min Rain = 0
KGGS 200945Z 17005KT 25/14 A3004 RMK A01 T02480142  RH  054%=      5-min Rain = 0
KGGS 200950Z 17005KT 25/14 A3004 RMK A01 T02470142  RH  054%=      5-min Rain = 0
KGGS 200955Z 17005KT 25/14 A3004 RMK A01 T02450142  RH  055%=      5-min Rain = 0
KGGS 201000Z 17005KT 24/14 A3004 RMK A01 T02440141  RH  055%=      5-min Rain = 0
KGGS 201005Z 17005KT 24/14 A3004 RMK A01 T02430141  RH  056%=      5-min Rain = 0
KGGS 201010Z 18005KT 24/14 A3005 RMK A01 T02400141  RH  056%=      5-min Rain = 0
KGGS 201015Z 18005KT 24/14 A3005 RMK A01 T02390141  RH  057%=      5-min Rain = 0
KGGS 201020Z 18005KT 24/14 A3005 RMK A01 T02370141  RH  057%=      5-min Rain = 0
KGGS 201025Z 17005KT 24/14 A3005 RMK A01 T02360140  RH  057%=      5-min Rain = 0
KGGS 201030Z 17004KT 23/14 A3005 RMK A01 T02340140  RH  058%=      5-min Rain = 0
KGGS 201035Z 16004KT 23/14 A3005 RMK A01 T02320140  RH  059%=      5-min Rain = 0
KGGS 201040Z 17003KT 23/14 A3005 RMK A01 T02310141  RH  059%=      5-min Rain = 0
KGGS 201045Z 17003KT 23/14 A3006 RMK A01 T02300140  RH  059%=      5-min Rain = 0
KGGS 201050Z 17004KT 23/14 A3006 RMK A01 T02280140  RH  060%=      5-min Rain = 0
KGGS 201055Z 17004KT 23/14 A3006 RMK A01 T02270139  RH  060%=      5-min Rain = 0
KGGS 201100Z 17003KT 22/14 A3006 RMK A01 T02240138  RH  060%=      5-min Rain = 0
KGGS 201105Z 17003KT 22/14 A3006 RMK A01 T02220139  RH  062%=      5-min Rain = 0
KGGS 201110Z 17003KT 22/14 A3006 RMK A01 T02210139  RH  062%=      5-min Rain = 0
KGGS 201115Z 16004KT 22/14 A3006 RMK A01 T02200139  RH  063%=      5-min Rain = 0
KGGS 201120Z 17004KT 22/14 A3006 RMK A01 T02190139  RH  063%=      5-min Rain = 0
KGGS 201125Z 17004KT 22/14 A3006 RMK A01 T02180135  RH  062%=      5-min Rain = 0
KGGS 201130Z 17004KT 22/14 A3007 RMK A01 T02170138  RH  063%=      5-min Rain = 0
KGGS 201135Z 17004KT 22/14 A3007 RMK A01 T02170138  RH  064%=      5-min Rain = 0
KGGS 201140Z 17004KT 22/14 A3007 RMK A01 T02160140  RH  064%=      5-min Rain = 0
KGGS 201145Z 17004KT 22/14 A3007 RMK A01 T02170141  RH  065%=      5-min Rain = 0
KGGS 201150Z 17004KT 22/14 A3007 RMK A01 T02190142  RH  064%=      5-min Rain = 0
KGGS 201155Z 17003KT 22/14 A3007 RMK A01 T02200142  RH  064%=      5-min Rain = 0
KGGS 201200Z 16003KT 22/14 A3007 RMK A01 T02180139  RH  063%=      5-min Rain = 0
KGGS 201205Z 16002KT 22/14 A3007 RMK A01 T02170139  RH  064%=      5-min Rain = 0
KGGS 201210Z 16003KT 22/14 A3007 RMK A01 T02150141  RH  065%=      5-min Rain = 0
KGGS 201215Z 16003KT 22/14 A3007 RMK A01 T02160143  RH  066%=      5-min Rain = 0
KGGS 201220Z 14002KT 22/14 A3007 RMK A01 T02150141  RH  065%=      5-min Rain = 0
KGGS 201225Z 12002KT 21/14 A3008 RMK A01 T02140142  RH  066%=      5-min Rain = 0
KGGS 201230Z 12002KT 22/14 A3008 RMK A01 T02160144  RH  066%=      5-min Rain = 0
KGGS 201235Z 11001KT 22/15 A3008 RMK A01 T02210145  RH  064%=      5-min Rain = 0
KGGS 201240Z 11001KT 23/15 A3008 RMK A01 T02270145  RH  062%=      5-min Rain = 0
KGGS 201245Z 12001KT 23/15 A3008 RMK A01 T02300145  RH  061%=      5-min Rain = 0
KGGS 201250Z 13001KT 23/15 A3008 RMK A01 T02330146  RH  061%=      5-min Rain = 0
KGGS 201255Z 12002KT 24/15 A3008 RMK A01 T02390146  RH  058%=      5-min Rain = 0
KGGS 201300Z 12001KT 25/15 A3008 RMK A01 T02450146  RH  057%=      5-min Rain = 0
KGGS 201305Z 14001KT 25/15 A3008 RMK A01 T02480148  RH  056%=      5-min Rain = 0
KGGS 201310Z 14002KT 25/15 A3008 RMK A01 T02540150  RH  055%=      5-min Rain = 0
KGGS 201315Z 14001KT 26/15 A3008 RMK A01 T02590150  RH  053%=      5-min Rain = 0
KGGS 201320Z 15002KT 26/15 A3008 RMK A01 T02630151  RH  052%=      5-min Rain = 0
KGGS 201325Z 14002KT 27/15 A3008 RMK A01 T02670152  RH  052%=      5-min Rain = 0
KGGS 201330Z 15003KT 27/15 A3008 RMK A01 T02710153  RH  051%=      5-min Rain = 0
KGGS 201335Z 18005KT 27/16 A3008 RMK A01 T02730157  RH  051%=      5-min Rain = 0
KGGS 201340Z 17006KT 28/16 A3009 RMK A01 T02750158  RH  051%=      5-min Rain = 0
KGGS 201345Z 17006KT 28/16 A3009 RMK A01 T02750159  RH  051%=      5-min Rain = 0
KGGS 201350Z 18006KT 28/16 A3008 RMK A01 T02760160  RH  051%=      5-min Rain = 0
KGGS 201355Z 18007KT 28/16 A3008 RMK A01 T02770162  RH  052%=      5-min Rain = 0
KGGS 201400Z 18006KT 28/16 A3008 RMK A01 T02780161  RH  051%=      5-min Rain = 0
KGGS 201405Z 19006KT 28/16 A3008 RMK A01 T02830163  RH  051%=      5-min Rain = 0
KGGS 201410Z 20009KT 28/17 A3008 RMK A01 T02830166  RH  052%=      5-min Rain = 0
KGGS 201415Z 20009G14KT 29/17 A3008 RMK A01 T02870168  RH  051%=      5-min Rain = 0
KGGS 201420Z 19010KT 29/17 A3008 RMK A01 T02850169  RH  052%=      5-min Rain = 0
KGGS 201425Z 19010G16KT 29/17 A3008 RMK A01 T02890171  RH  051%=      5-min Rain = 0
KGGS 201430Z 19011G16KT 29/17 A3009 RMK A01 T02910173  RH  052%=      5-min Rain = 0
KGGS 201435Z 19012KT 29/17 A3009 RMK A01 T02930174  RH  051%=      5-min Rain = 0
KGGS 201440Z 20010KT 29/18 A3009 RMK A01 T02940175  RH  051%=      5-min Rain = 0
KGGS 201445Z 19010KT 30/18 A3008 RMK A01 T02960175  RH  051%=      5-min Rain = 0
KGGS 201450Z 21009KT 30/18 A3008 RMK A01 T03000176  RH  050%=      5-min Rain = 0
KGGS 201455Z 20011KT 30/18 A3008 RMK A01 T02990175  RH  050%=      5-min Rain = 0
KGGS 201500Z 20010G16KT 30/18 A3008 RMK A01 T03010175  RH  049%=      5-min Rain = 0
KGGS 201505Z 20009KT 30/18 A3008 RMK A01 T03040176  RH  049%=      5-min Rain = 0
KGGS 201510Z 20009KT 31/18 A3008 RMK A01 T03080176  RH  047%=      5-min Rain = 0
KGGS 201515Z 19007KT 31/18 A3008 RMK A01 T03080176  RH  048%=      5-min Rain = 0
KGGS 201520Z 22010KT 31/18 A3008 RMK A01 T03140175  RH  046%=      5-min Rain = 0
KGGS 201525Z 21010KT 31/17 A3008 RMK A01 T03110174  RH  046%=      5-min Rain = 0
KGGS 201530Z 21009KT 31/17 A3008 RMK A01 T03140174  RH  046%=      5-min Rain = 0
KGGS 201535Z 21008G14KT 32/17 A3008 RMK A01 T03170172  RH  044%=      5-min Rain = 0
KGGS 201540Z 21010KT 32/17 A3008 RMK A01 T03190171  RH  043%=      5-min Rain = 0
KGGS 201545Z 20009KT 32/17 A3008 RMK A01 T03200171  RH  043%=      5-min Rain = 0
KGGS 201550Z 18008G14KT 32/17 A3009 RMK A01 T03220172  RH  043%=      5-min Rain = 0
KGGS 201555Z 18008KT 32/17 A3009 RMK A01 T03200170  RH  043%=      5-min Rain = 0
KGGS 201600Z 18008G13KT 33/17 A3009 RMK A01 T03250169  RH  041%=      5-min Rain = 0
KGGS 201605Z 18009KT 33/17 A3009 RMK A01 T03250168  RH  041%=      5-min Rain = 0
KGGS 201610Z 18008G13KT 33/17 A3009 RMK A01 T03260167  RH  041%=      5-min Rain = 0
KGGS 201615Z 18008KT 33/17 A3009 RMK A01 T03280167  RH  040%=      5-min Rain = 0
KGGS 201620Z 17008G13KT 33/17 A3009 RMK A01 T03300165  RH  039%=      5-min Rain = 0
KGGS 201625Z 17006KT 34/17 A3009 RMK A01 T03360167  RH  038%=      5-min Rain = 0
KGGS 201630Z 19006G14KT 34/17 A3009 RMK A01 T03350167  RH  039%=      5-min Rain = 0
KGGS 201635Z 22008KT 33/17 A3009 RMK A01 T03310165  RH  039%=      5-min Rain = 0
KGGS 201640Z 20006KT 33/17 A3009 RMK A01 T03340166  RH  039%=      5-min Rain = 0
KGGS 201645Z 17006KT 34/16 A3009 RMK A01 T03370164  RH  037%=      5-min Rain = 0
KGGS 201650Z 17004KT 34/17 A3009 RMK A01 T03400165  RH  037%=      5-min Rain = 0
KGGS 201655Z 18007G15KT 34/16 A3009 RMK A01 T03430163  RH  036%=      5-min Rain = 0
KGGS 201700Z 18005G11KT 34/16 A3009 RMK A01 T03400163  RH  036%=      5-min Rain = 0
KGGS 201705Z 19004G9KT 34/16 A3009 RMK A01 T03390162  RH  036%=      5-min Rain = 0
KGGS 201710Z 18005KT 34/16 A3009 RMK A01 T03410161  RH  036%=      5-min Rain = 0
KGGS 201715Z 16007G12KT 35/16 A3008 RMK A01 T03460159  RH  034%=      5-min Rain = 0
KGGS 201720Z 17008G14KT 35/16 A3009 RMK A01 T03490157  RH  033%=      5-min Rain = 0
KGGS 201725Z 13005G11KT 35/16 A3009 RMK A01 T03470159  RH  034%=      5-min Rain = 0
KGGS 201730Z 17008KT 35/16 A3008 RMK A01 T03500156  RH  033%=      5-min Rain = 0
KGGS 201735Z 13009G14KT 35/15 A3008 RMK A01 T03520153  RH  032%=      5-min Rain = 0
KGGS 201740Z 13008KT 35/15 A3008 RMK A01 T03480154  RH  033%=      5-min Rain = 0
KGGS 201745Z 13009G16KT 35/15 A3008 RMK A01 T03500152  RH  032%=      5-min Rain = 0
KGGS 201750Z 16008G13KT 35/15 A3008 RMK A01 T03510151  RH  032%=      5-min Rain = 0
KGGS 201755Z 15004G19KT 35/15 A3008 RMK A01 T03480153  RH  033%=      5-min Rain = 0
KGGS 201800Z 16007KT 36/15 A3008 RMK A01 T03590151  RH  030%=      5-min Rain = 0
KGGS 201805Z 14008G14KT 35/15 A3008 RMK A01 T03530148  RH  031%=      5-min Rain = 0
KGGS 201810Z 13009G14KT 35/14 A3008 RMK A01 T03510141  RH  030%=      5-min Rain = 0
KGGS 201815Z 10005G11KT 35/15 A3008 RMK A01 T03480148  RH  032%=      5-min Rain = 0
KGGS 201820Z 17007G13KT 36/16 A3008 RMK A01 T03570155  RH  031%=      5-min Rain = 0
KGGS 201825Z 19007KT 35/16 A3008 RMK A01 T03530157  RH  033%=      5-min Rain = 0
KGGS 201830Z 13006G14KT 35/16 A3008 RMK A01 T03510156  RH  033%=      5-min Rain = 0
KGGS 201835Z 14006G12KT 35/15 A3008 RMK A01 T03510153  RH  032%=      5-min Rain = 0
KGGS 201840Z 15007G15KT 36/15 A3007 RMK A01 T03580151  RH  030%=      5-min Rain = 0
KGGS 201845Z 18008G13KT 36/15 A3007 RMK A01 T03590148  RH  030%=      5-min Rain = 0
KGGS 201850Z 15008KT 36/15 A3007 RMK A01 T03620145  RH  029%=      5-min Rain = 0
KGGS 201855Z 15009G14KT 36/14 A3007 RMK A01 T03620143  RH  028%=      5-min Rain = 0
KGGS 201900Z 13009KT 36/14 A3007 RMK A01 T03590143  RH  029%=      5-min Rain = 0
KGGS 201905Z 14003G11KT 36/14 A3007 RMK A01 T03620139  RH  028%=      5-min Rain = 0
KGGS 201910Z 12005G12KT 36/14 A3007 RMK A01 T03600135  RH  027%=      5-min Rain = 0
KGGS 201915Z 11007G14KT 36/14 A3006 RMK A01 T03610139  RH  028%=      5-min Rain = 0
KGGS 201920Z 12006KT 37/14 A3006 RMK A01 T03650138  RH  027%=      5-min Rain = 0
KGGS 201925Z 11006KT 37/14 A3006 RMK A01 T03670136  RH  026%=      5-min Rain = 0
KGGS 201930Z 10004G10KT 37/14 A3006 RMK A01 T03650139  RH  027%=      5-min Rain = 0
KGGS 201935Z 09006G13KT 37/13 A3006 RMK A01 T03670134  RH  026%=      5-min Rain = 0
KGGS 201940Z 10005KT 37/14 A3005 RMK A01 T03670135  RH  026%=      5-min Rain = 0
KGGS 201945Z 13009G18KT 37/13 A3005 RMK A01 T03670134  RH  026%=      5-min Rain = 0
KGGS 201950Z 17009G14KT 37/14 A3005 RMK A01 T03720136  RH  026%=      5-min Rain = 0
KGGS 201955Z 17005G10KT 37/14 A3005 RMK A01 T03740136  RH  025%=      5-min Rain = 0
KGGS 202000Z 08006KT 37/14 A3005 RMK A01 T03670137  RH  026%=      5-min Rain = 0
KGGS 202005Z 16007G13KT 37/14 A3004 RMK A01 T03710138  RH  026%=      5-min Rain = 0
KGGS 202010Z 14011G17KT 37/14 A3004 RMK A01 T03700137  RH  026%=      5-min Rain = 0
KGGS 202015Z 16008G14KT 38/14 A3004 RMK A01 T03770135  RH  025%=      5-min Rain = 0
KGGS 202020Z 10006G11KT 38/13 A3004 RMK A01 T03760128  RH  024%=      5-min Rain = 0
KGGS 202025Z 14006KT 37/12 A3004 RMK A01 T03730120  RH  023%=      5-min Rain = 0
KGGS 202030Z 13006KT 37/12 A3003 RMK A01 T03740121  RH  023%=      5-min Rain = 0
KGGS 202035Z 17008G13KT 38/12 A3003 RMK A01 T03790122  RH  022%=      5-min Rain = 0
KGGS 202040Z 15007G17KT 38/13 A3003 RMK A01 T03750125  RH  023%=      5-min Rain = 0
KGGS 202045Z 13009G16KT 37/13 A3003 RMK A01 T03720127  RH  024%=      5-min Rain = 0
KGGS 202050Z 15006KT 37/12 A3003 RMK A01 T03730124  RH  024%=      5-min Rain = 0
KGGS 202055Z 15009G16KT 38/12 A3002 RMK A01 T03810119  RH  022%=      5-min Rain = 0
KGGS 202100Z 17006G12KT 38/11 A3002 RMK A01 T03800114  RH  021%=      5-min Rain = 0
KGGS 202105Z 15008G13KT 38/12 A3002 RMK A01 T03840117  RH  021%=      5-min Rain = 0
KGGS 202110Z 12008G14KT 38/13 A3002 RMK A01 T03790126  RH  023%=      5-min Rain = 0
KGGS 202115Z 12008KT 37/13 A3001 RMK A01 T03720128  RH  024%=      5-min Rain = 0
KGGS 202120Z 14007KT 37/12 A3001 RMK A01 T03700118  RH  023%=      5-min Rain = 0
KGGS 202125Z 13009G14KT 38/11 A3001 RMK A01 T03790107  RH  020%=      5-min Rain = 0
KGGS 202130Z 15008G14KT 38/12 A3001 RMK A01 T03770120  RH  022%=      5-min Rain = 0
KGGS 202135Z 14007KT 37/12 A3001 RMK A01 T03730122  RH  023%=      5-min Rain = 0
KGGS 202140Z 12008G13KT 37/12 A3001 RMK A01 T03740124  RH  023%=      5-min Rain = 0
KGGS 202145Z 13010G16KT 37/12 A3001 RMK A01 T03730120  RH  023%=      5-min Rain = 0
KGGS 202150Z 15010KT 37/12 A3001 RMK A01 T03700115  RH  022%=      5-min Rain = 0
KGGS 202155Z 15008G16KT 38/12 A3001 RMK A01 T03760116  RH  022%=      5-min Rain = 0
KGGS 202200Z 15011KT 38/12 A3001 RMK A01 T03800116  RH  021%=      5-min Rain = 0
KGGS 202205Z 15009KT 38/11 A3001 RMK A01 T03790112  RH  021%=      5-min Rain = 0
KGGS 202210Z 12006G11KT 37/12 A30 RMK A01 T03740115  RH  022%=      5-min Rain = 0
KGGS 202215Z 11007G12KT 38/11 A30 RMK A01 T03760107  RH  021%=      5-min Rain = 0
KGGS 202220Z 14011G16KT 38/11 A30 RMK A01 T03790114  RH  021%=      5-min Rain = 0
KGGS 202225Z 13008KT 37/11 A30 RMK A01 T03730108  RH  021%=      5-min Rain = 0
KGGS 202230Z 15007G13KT 38/11 A30 RMK A01 T03760105  RH  020%=      5-min Rain = 0
KGGS 202235Z 13008G16KT 37/10 A30 RMK A01 T03700104  RH  021%=      5-min Rain = 0
KGGS 202240Z 12008KT 36/10 A30 RMK A01 T03630102  RH  021%=      5-min Rain = 0
KGGS 202245Z 09009G16KT 37/10 A30 RMK A01 T03660099  RH  020%=      5-min Rain = 0
KGGS 202250Z 14005KT 37/10 A2999 RMK A01 T03710103  RH  021%=      5-min Rain = 0
KGGS 202255Z 13011G19KT 38/11 A30 RMK A01 T03760109  RH  021%=      5-min Rain = 0
KGGS 202300Z 13010G16KT 37/11 A30 RMK A01 T03730107  RH  021%=      5-min Rain = 0
KGGS 202305Z 13009G14KT 38/09 A30 RMK A01 T03750090  RH  018%=      5-min Rain = 0
KGGS 202310Z 14010G15KT 37/11 A30 RMK A01 T03730106  RH  021%=      5-min Rain = 0
KGGS 202315Z 14010KT 37/11 A30 RMK A01 T03740105  RH  020%=      5-min Rain = 0
KGGS 202320Z 13007G12KT 37/11 A30 RMK A01 T03740110  RH  021%=      5-min Rain = 0
KGGS 202325Z 13008G13KT 37/11 A30 RMK A01 T03720105  RH  021%=      5-min Rain = 0
KGGS 202330Z 13009G14KT 37/10 A30 RMK A01 T03720101  RH  020%=      5-min Rain = 0
KGGS 202335Z 14009G15KT 37/10 A30 RMK A01 T03700100  RH  020%=      5-min Rain = 0
KGGS 202340Z 14010KT 37/10 A2999 RMK A01 T03670096  RH  020%=      5-min Rain = 0
KGGS 202345Z 14009KT 37/10 A2999 RMK A01 T03690095  RH  020%=      5-min Rain = 0
KGGS 202350Z 13010KT 37/09 A30 RMK A01 T03660094  RH  020%=      5-min Rain = 0
KGGS 202355Z 12008KT 37/10 A30 RMK A01 T03650098  RH  021%=      5-min Rain = 0
KGGS 210000Z 12009KT 36/10 A30 RMK A01 T03640102  RH  021%=      5-min Rain = 0
KGGS 210005Z 13009KT 36/10 A30 RMK A01 T03630104  RH  022%=      5-min Rain = 0
KGGS 210010Z 13008KT 36/11 A30 RMK A01 T03620109  RH  022%=      5-min Rain = 0
KGGS 210015Z 13011G18KT 36/11 A30 RMK A01 T03600107  RH  022%=      5-min Rain = 0
KGGS 210020Z 14009G14KT 36/11 A30 RMK A01 T03590105  RH  022%=      5-min Rain = 0
KGGS 210025Z 13009KT 36/11 A30 RMK A01 T03580106  RH  022%=      5-min Rain = 0
KGGS 210030Z 12008G13KT 36/11 A30 RMK A01 T03560110  RH  023%=      5-min Rain = 0
KGGS 210035Z 12008KT 35/11 A30 RMK A01 T03540111  RH  024%=      5-min Rain = 0
KGGS 210040Z 12007KT 35/11 A30 RMK A01 T03530109  RH  023%=      5-min Rain = 0
KGGS 210045Z 13009KT 35/11 A30 RMK A01 T03520108  RH  024%=      5-min Rain = 0
KGGS 210050Z 13008KT 35/10 A30 RMK A01 T03510104  RH  023%=      5-min Rain = 0
KGGS 210055Z 13010KT 35/11 A30 RMK A01 T03480110  RH  024%=      5-min Rain = 0
KGGS 210100Z 12009KT 35/12 A30 RMK A01 T03450115  RH  026%=      5-min Rain = 0
KGGS 210105Z 12009KT 34/12 A30 RMK A01 T03440115  RH  026%=      5-min Rain = 0
KGGS 210110Z 13008KT 34/12 A30 RMK A01 T03420115  RH  026%=      5-min Rain = 0
KGGS 210115Z 13008KT 34/12 A3001 RMK A01 T03390119  RH  027%=      5-min Rain = 0
KGGS 210120Z 12008KT 34/12 A3001 RMK A01 T03380119  RH  027%=      5-min Rain = 0
KGGS 210125Z 12007KT 34/12 A3001 RMK A01 T03360119  RH  028%=      5-min Rain = 0
KGGS 210130Z 12007KT 33/12 A3001 RMK A01 T03340120  RH  028%=      5-min Rain = 0
KGGS 210135Z 12007KT 33/12 A3001 RMK A01 T03320121  RH  029%=      5-min Rain = 0
KGGS 210140Z 12006KT 33/12 A3001 RMK A01 T03290122  RH  029%=      5-min Rain = 0
KGGS 210145Z 12006KT 33/12 A3001 RMK A01 T03270122  RH  030%=      5-min Rain = 0
KGGS 210150Z 12006KT 33/12 A3002 RMK A01 T03250122  RH  030%=      5-min Rain = 0
KGGS 210155Z 13006KT 32/12 A3002 RMK A01 T03220122  RH  031%=      5-min Rain = 0
KGGS 210200Z 13006KT 32/12 A3002 RMK A01 T03210123  RH  031%=      5-min Rain = 0
KGGS 210205Z 13005KT 32/12 A3002 RMK A01 T03200123  RH  031%=      5-min Rain = 0
KGGS 210210Z 13005KT 32/12 A3002 RMK A01 T03170124  RH  032%=      5-min Rain = 0
KGGS 210215Z 13006KT 32/12 A3002 RMK A01 T03150124  RH  032%=      5-min Rain = 0
KGGS 210220Z 13006KT 32/12 A3002 RMK A01 T03150124  RH  032%=      5-min Rain = 0
KGGS 210225Z 13006KT 32/13 A3002 RMK A01 T03150125  RH  032%=      5-min Rain = 0
KGGS 210230Z 13005KT 31/13 A3002 RMK A01 T03120126  RH  033%=      5-min Rain = 0
KGGS 210235Z 14005KT 31/13 A3003 RMK A01 T03100126  RH  034%=      5-min Rain = 0
KGGS 210240Z 14005KT 31/13 A3003 RMK A01 T03090125  RH  034%=      5-min Rain = 0
KGGS 210245Z 14005KT 31/13 A3003 RMK A01 T03060125  RH  034%=      5-min Rain = 0
KGGS 210250Z 15004KT 30/12 A3003 RMK A01 T03020124  RH  035%=      5-min Rain = 0
KGGS 210255Z 15005KT 30/12 A3004 RMK A01 T02970123  RH  036%=      5-min Rain = 0
KGGS 210300Z 14005KT 29/12 A3004 RMK A01 T02930123  RH  037%=      5-min Rain = 0
KGGS 210305Z 14005KT 29/12 A3004 RMK A01 T02930124  RH  037%=      5-min Rain = 0
KGGS 210310Z 14005KT 29/12 A3004 RMK A01 T02920124  RH  037%=      5-min Rain = 0
KGGS 210315Z 14005KT 29/12 A3005 RMK A01 T02910124  RH  037%=      5-min Rain = 0
KGGS 210320Z 14005KT 29/12 A3005 RMK A01 T02890124  RH  038%=      5-min Rain = 0
KGGS 210325Z 14005KT 29/12 A3005 RMK A01 T02870124  RH  038%=      5-min Rain = 0
KGGS 210330Z 14005KT 29/12 A3005 RMK A01 T02860124  RH  038%=      5-min Rain = 0
KGGS 210335Z 14006KT 28/12 A3005 RMK A01 T02840124  RH  039%=      5-min Rain = 0
KGGS 210340Z 14006KT 28/12 A3005 RMK A01 T02830124  RH  039%=      5-min Rain = 0
KGGS 210345Z 14005KT 28/12 A3005 RMK A01 T02820124  RH  039%=      5-min Rain = 0
KGGS 210350Z 14006KT 28/12 A3005 RMK A01 T02800124  RH  039%=      5-min Rain = 0
KGGS 210355Z 14006KT 28/12 A3005 RMK A01 T02800123  RH  039%=      5-min Rain = 0
KGGS 210400Z 14006KT 28/12 A3005 RMK A01 T02800123  RH  039%=      5-min Rain = 0
KGGS 210405Z 15006KT 28/12 A3005 RMK A01 T02810122  RH  039%=      5-min Rain = 0
KGGS 210410Z 15007KT 28/12 A3005 RMK A01 T02830121  RH  038%=      5-min Rain = 0
KGGS 210415Z 15006KT 28/12 A3005 RMK A01 T02830120  RH  038%=      5-min Rain = 0
KGGS 210420Z 15006KT 28/12 A3005 RMK A01 T02830120  RH  038%=      5-min Rain = 0
KGGS 210425Z 14006KT 28/12 A3005 RMK A01 T02840120  RH  038%=      5-min Rain = 0
KGGS 210430Z 14006KT 28/12 A3005 RMK A01 T02830120  RH  038%=      5-min Rain = 0
KGGS 210435Z 14006KT 28/12 A3005 RMK A01 T02800120  RH  038%=      5-min Rain = 0
KGGS 210440Z 14006KT 28/12 A3005 RMK A01 T02780120  RH  039%=      5-min Rain = 0
KGGS 210445Z 14006KT 28/12 A3005 RMK A01 T02760121  RH  039%=      5-min Rain = 0
KGGS 210450Z 14005KT 28/12 A3005 RMK A01 T02750121  RH  040%=      5-min Rain = 0
KGGS 210455Z 14005KT 27/12 A3005 RMK A01 T02730121  RH  040%=      5-min Rain = 0

Page generated in 0.0105 seconds.